DAAE Airport Information

Runway Information
Runway 08 Length 7874 ft width 148 ft
Elevation 20 ft Threshold 0 ft Heading 80
Runway 26 Length 7874 ft Width 148 ft
Elevation 10 ft Threshold 0 ft Heading 260
Airport Frequencies
Type TWR Name BEJAIA TWR Frequency 118.9 MHZ
Airport Navaids
Type NDB Name Bejaia Frequency 423 KHZ
Airport Weather Information & NOTAM
ADDS - METARS form results

(2351 UTC 22 July 2018)
 
METAR text: DAAE 222300Z 04004KT 8000 FEW016 SCT020 26/24 Q1015
Conditions at: DAAE (BEJAIA/SOUMMAM , DZ) observed 2300 UTC 22 July 2018
Temperature: 26.0°C (79°F)
Dewpoint: 24.0°C (75°F) [RH = 89%]
Pressure (altimeter): 29.97 inches Hg (1015.0 mb)
Winds: from the NE (40 degrees) at 5 MPH (4 knots; 2.1 m/s)
Visibility: 5 miles (8 km)
Ceiling: at least 12,000 feet AGL
Clouds: few clouds at 1600 feet AGL
scattered clouds at 2000 feet AGL
Weather: no significant weather observed at this time